This is the latest recevied weather packets stored in our database for station/object N0QV. If no packets are shown the sender has not sent any weather packets the latest 1 day(s).
| Time | Temp. | Humidity | Pressure | Rain* | Wind** | Luminosity | Snow |
|---|---|---|---|---|---|---|---|
| 1777991200 | 8.89° C | 45% | 1011.9 hPa | 0 mm | 0 m/s | 475 W/m² | - |
| 1777990897 | 8.89° C | 47% | 1011.9 hPa | 0 mm | 0.89 m/s, 243° | 418 W/m² | - |
| 1777990595 | 9.44° C | 49% | 1011.8 hPa | 0 mm | 0.45 m/s, 256° | 414 W/m² | - |
| 1777990291 | 9.44° C | 47% | 1012 hPa | 0 mm | 0.45 m/s, 93° | 379 W/m² | - |
| 1777989988 | 8.89° C | 46% | 1011.6 hPa | 0 mm | 0.89 m/s, 294° | 389 W/m² | - |
| 1777989685 | 8.33° C | 50% | 1011.9 hPa | 0 mm | 0.45 m/s, 266° | 374 W/m² | - |
| 1777989386 | 8.89° C | 53% | 1011.7 hPa | 0 mm | 0.45 m/s, 252° | 360 W/m² | - |
| 1777989083 | 8.33° C | 53% | 1011.8 hPa | 0 mm | 0.45 m/s, 279° | 341 W/m² | - |
| 1777988778 | 8.33° C | 51% | 1011.7 hPa | 0 mm | 0.45 m/s, 258° | 321 W/m² | - |
| 1777988476 | 8.89° C | 50% | 1011.6 hPa | 0 mm | 0.45 m/s, 277° | 291 W/m² | - |
| 1777988173 | 7.78° C | 54% | 1011.6 hPa | 0 mm | 0 m/s | 284 W/m² | - |
| 1777987869 | 7.78° C | 52% | 1011.6 hPa | 0 mm | 0 m/s | 185 W/m² | - |
| 1777987565 | 7.78° C | 55% | 1011.6 hPa | 0 mm | 1.34 m/s, 308° | 281 W/m² | - |
| 1777987263 | 7.22° C | 55% | 1011.6 hPa | 0 mm | 0.45 m/s, 250° | 246 W/m² | - |
| 1777986959 | 7.22° C | 56% | 1011.2 hPa | 0 mm | 0.45 m/s, 224° | 234 W/m² | - |
| 1777986658 | 6.67° C | 55% | 1011.6 hPa | 0 mm | 0.89 m/s, 328° | 219 W/m² | - |
| 1777986355 | 6.11° C | 58% | 1011.3 hPa | 0 mm | 0.45 m/s, 314° | 188 W/m² | - |
| 1777986054 | 6.11° C | 58% | 1011.3 hPa | 0 mm | 0.45 m/s, 256° | 184 W/m² | - |
| 1777985750 | 6.11° C | 58% | 1011.4 hPa | 0 mm | 0.45 m/s, 329° | 162 W/m² | - |
| 1777985447 | 6.11° C | 60% | 1011.2 hPa | 0 mm | 0.45 m/s, 272° | 153 W/m² | - |
| 1777985143 | 6.11° C | 59% | 1011.4 hPa | 0 mm | 0.45 m/s, 273° | 140 W/m² | - |
| 1777984839 | 6.11° C | 60% | 1011.5 hPa | 0 mm | 0.45 m/s, 248° | 126 W/m² | - |
| 1777984536 | 5° C | 60% | 1011.2 hPa | 0 mm | 0.45 m/s, 273° | 116 W/m² | - |
| 1777984232 | 5° C | 61% | 1011.1 hPa | 0 mm | 0.45 m/s, 273° | 107 W/m² | - |
| 1777983929 | 5° C | 61% | 1010.9 hPa | 0 mm | 0.45 m/s, 268° | 97 W/m² | - |
* Rain latest hour (hover to see other rain measurements)
** Current wind speed in m/s (hover to see current wind gust speed)